KFNT/FNT METAR and TAF weather

Enter ICAO airport designator
Station Type Date Time Source
KFNT METAR 2019/04/25 09:53 UTC NOAA

KFNT 250953Z 17006KT 10SM BKN080 OVC110 09/03 A2986 RMK AO2 SLP111 T00940028


Station Type Date Time Source
KFNT Decoded METAR 2019/04/25 09:53 UTC NOAA

FLINT BISHOP INTERNATIONAL AIRPORT, MI, United States (KFNT) 42-58N 83-45W 233M
Apr 25, 2019 - 05:53 AM EDT / 2019.04.25 0953 UTC
Wind: from the S (170 degrees) at 7 MPH (6 KT):0
Visibility: 10 mile(s):0
Sky conditions: overcast
Temperature: 48.9 F (9.4 C)
Dew Point: 37.0 F (2.8 C)
Relative Humidity: 63%
Pressure (altimeter): 29.86 in. Hg (1011 hPa)
ob: KFNT 250953Z 17006KT 10SM BKN080 OVC110 09/03 A2986 RMK AO2 SLP111 T00940028
cycle: 10

Station Type Date Time Source
KFNT TAF 2019/04/25 06:22 UTC NOAA

TAF KFNT 250520Z 2506/2606 16005KT P6SM SCT150 BKN250
FM251600 15006KT P6SM SCT050 OVC080
FM260000 11008KT P6SM BKN035 OVC050
FM260400 04010KT 6SM -RA OVC028

Example: see airport list